Time;durP1;ratioP1;P1;durP2;ratioP2;P2;SDS_P1;SDS_P2;PMS_P1;PMS_P2;Temp;Humidity;BMP_temperature;BMP_pressure;BME280_temperature;BME280_humidity;BME280_pressure;Samples;Min_cycle;Max_cycle;Signal;HPM_P1;HPM_P2
2023/09/04 00:00:05;;;;;;;6.93;4.10;;;;;;;18.43;59.26;101188.63;5022733;28;21095;-46
2023/09/04 00:02:32;;;;;;;10.93;6.82;;;;;;;18.40;59.15;101188.66;5023069;28;20669;-46
2023/09/04 00:04:59;;;;;;;10.93;7.00;;;;;;;18.37;59.23;101193.94;5019356;28;20053;-45
2023/09/04 00:07:25;;;;;;;11.85;7.18;;;;;;;18.34;59.32;101188.78;5024552;28;20037;-45
2023/09/04 00:09:52;;;;;;;11.75;6.78;;;;;;;18.32;59.09;101182.69;5024598;28;20060;-45
2023/09/04 00:12:19;;;;;;;16.00;7.72;;;;;;;18.30;59.91;101189.72;5025117;28;20080;-48
2023/09/04 00:14:45;;;;;;;12.93;7.57;;;;;;;18.27;59.82;101188.00;5022792;28;20107;-42
2023/09/04 00:17:12;;;;;;;16.10;8.23;;;;;;;18.26;60.59;101188.03;5022628;28;20103;-46
2023/09/04 00:19:39;;;;;;;15.73;9.07;;;;;;;18.24;60.24;101181.06;5028866;28;20045;-46
2023/09/04 00:22:05;;;;;;;12.32;7.43;;;;;;;18.23;59.79;101176.72;5026402;28;20431;-43
2023/09/04 00:24:32;;;;;;;16.40;8.40;;;;;;;18.22;60.70;101184.59;5020763;28;20054;-46
2023/09/04 00:26:59;;;;;;;10.75;5.53;;;;;;;18.19;60.27;101175.03;5026437;28;20462;-47
2023/09/04 00:29:25;;;;;;;10.68;7.45;;;;;;;18.17;60.43;101181.19;5020711;28;20045;-43
2023/09/04 00:31:52;;;;;;;11.07;7.15;;;;;;;18.13;60.20;101172.50;5027228;28;20065;-48
2023/09/04 00:34:19;;;;;;;13.55;7.78;;;;;;;18.11;60.42;101176.91;5025801;28;20152;-42
2023/09/04 00:36:45;;;;;;;11.88;6.07;;;;;;;18.07;60.89;101178.66;5025788;28;20614;-45
2023/09/04 00:39:12;;;;;;;12.65;8.15;;;;;;;18.03;60.22;101179.63;5024547;28;20051;-45
2023/09/04 00:41:39;;;;;;;14.18;8.35;;;;;;;18.01;60.76;101176.16;5024703;28;20056;-45
2023/09/04 00:44:06;;;;;;;14.70;8.65;;;;;;;17.97;60.54;101177.94;5024837;28;20049;-44
2023/09/04 00:46:33;;;;;;;16.20;8.95;;;;;;;17.96;60.85;101177.97;5024218;28;20407;-42
2023/09/04 00:48:59;;;;;;;15.82;10.07;;;;;;;17.94;61.55;101177.16;5026218;28;20053;-45
2023/09/04 00:51:26;;;;;;;16.95;9.60;;;;;;;17.91;60.98;101170.19;5020615;28;20691;-45
2023/09/04 00:53:53;;;;;;;17.73;8.80;;;;;;;17.90;60.88;101162.38;5024617;28;20522;-46
2023/09/04 00:56:20;;;;;;;16.83;9.70;;;;;;;17.88;61.75;101159.75;5019194;28;20762;-42
2023/09/04 00:58:48;;;;;;;19.17;9.52;;;;;;;17.84;62.08;101152.84;5027377;28;20041;-45
2023/09/04 01:01:15;;;;;;;21.70;11.30;;;;;;;17.81;61.83;101152.88;5027237;28;20131;-50
2023/09/04 01:03:41;;;;;;;22.88;10.85;;;;;;;17.80;61.98;101145.91;5027091;28;20091;-46
2023/09/04 01:06:08;;;;;;;19.67;10.85;;;;;;;17.77;62.83;101154.69;5020564;28;20067;-44
2023/09/04 01:08:36;;;;;;;21.17;11.40;;;;;;;17.75;62.15;101155.59;5024381;28;20052;-41
2023/09/04 01:11:28;;;;;;;20.30;11.43;;;;;;;17.66;62.88;101160.06;5034111;28;20135;-46
2023/09/04 01:13:56;;;;;;;21.75;11.68;;;;;;;17.70;62.49;101164.38;5022829;28;20054;-48
2023/09/04 01:16:23;;;;;;;18.63;9.98;;;;;;;17.68;62.63;101163.56;5019485;28;20429;-44
2023/09/04 01:18:51;;;;;;;17.80;10.25;;;;;;;17.64;62.64;101166.22;5024584;28;20124;-50
2023/09/04 01:21:18;;;;;;;21.52;9.68;;;;;;;17.59;63.24;101166.28;5024915;28;20517;-46
2023/09/04 01:23:46;;;;;;;24.13;11.95;;;;;;;17.57;62.62;101170.69;5025387;28;20072;-46
2023/09/04 01:26:36;;;;;;;24.52;13.07;;;;;;;17.47;63.59;101156.88;5030563;28;20053;-47
2023/09/04 01:31:52;;;;;;;22.52;9.95;;;;;;;17.46;63.11;101161.22;5048772;28;20388;-43
2023/09/04 01:34:25;;;;;;;18.13;8.75;;;;;;;17.47;62.96;101160.31;4996245;28;20475;-44
2023/09/04 01:36:53;;;;;;;17.50;8.85;;;;;;;17.45;62.77;101156.00;4997156;28;20057;-51
2023/09/04 01:39:21;;;;;;;19.38;8.95;;;;;;;17.43;62.87;101157.78;5009813;28;20133;-43
2023/09/04 01:41:48;;;;;;;24.60;10.68;;;;;;;17.40;63.07;101152.59;5004137;28;20052;-47
2023/09/04 01:44:14;;;;;;;27.60;11.95;;;;;;;17.40;63.39;101152.59;4999871;28;20046;-46
2023/09/04 01:46:41;;;;;;;25.40;11.43;;;;;;;17.39;63.52;101151.72;4998028;28;20105;-50
2023/09/04 01:49:08;;;;;;;29.08;12.70;;;;;;;17.38;63.74;101147.38;5002103;28;20050;-43
2023/09/04 01:51:34;;;;;;;29.08;11.95;;;;;;;17.36;63.90;101145.66;4999029;28;20054;-42
2023/09/04 01:54:01;;;;;;;27.70;11.63;;;;;;;17.34;64.22;101146.56;5002573;28;20069;-43
2023/09/04 01:56:28;;;;;;;27.38;12.32;;;;;;;17.34;63.95;101143.06;5009589;28;20061;-47
2023/09/04 01:58:54;;;;;;;28.67;12.57;;;;;;;17.31;64.59;101137.88;5006618;28;20513;-43
2023/09/04 02:01:21;;;;;;;28.55;12.45;;;;;;;17.28;65.22;101137.91;5006276;28;20052;-44
2023/09/04 02:03:57;;;;;;;33.00;14.15;;;;;;;17.22;64.43;101131.00;4987109;28;20053;-46
2023/09/04 02:06:26;;;;;;;31.02;13.25;;;;;;;17.23;65.36;101134.50;5003492;28;20050;-48
2023/09/04 02:08:53;;;;;;;30.88;14.43;;;;;;;17.22;65.57;101133.59;4996932;28;20125;-45
2023/09/04 02:11:19;;;;;;;30.23;13.43;;;;;;;17.20;65.61;101135.41;5010374;28;20104;-45
2023/09/04 02:13:46;;;;;;;29.38;12.75;;;;;;;17.19;65.39;101131.06;5003758;28;20057;-42
2023/09/04 02:16:13;;;;;;;31.48;12.88;;;;;;;17.16;66.03;101137.19;5008711;28;20050;-45
2023/09/04 02:18:40;;;;;;;33.47;13.80;;;;;;;17.16;65.90;101129.31;5001054;28;20137;-46
2023/09/04 02:21:06;;;;;;;34.03;13.45;;;;;;;17.15;66.18;101122.38;4998917;28;20403;-45
2023/09/04 02:23:33;;;;;;;32.53;12.60;;;;;;;17.15;66.06;101121.47;5008399;28;20057;-50
2023/09/04 02:26:00;;;;;;;30.05;13.15;;;;;;;17.12;66.11;101117.16;5007558;28;20061;-44
2023/09/04 02:28:26;;;;;;;27.20;12.85;;;;;;;17.11;66.37;101115.44;4996876;28;20112;-45
2023/09/04 02:30:53;;;;;;;33.17;12.57;;;;;;;17.10;66.00;101113.72;5001130;28;20046;-46
2023/09/04 02:33:20;;;;;;;30.70;14.10;;;;;;;17.09;65.85;101111.97;5000057;28;20058;-46
2023/09/04 02:35:46;;;;;;;29.65;11.80;;;;;;;17.08;65.96;101110.22;4997463;28;20042;-46
2023/09/04 02:38:14;;;;;;;32.92;12.82;;;;;;;17.06;65.76;101106.78;4987128;28;20074;-48
2023/09/04 02:40:40;;;;;;;31.48;13.52;;;;;;;17.05;66.69;101102.38;4999972;28;20179;-44
2023/09/04 02:43:07;;;;;;;27.92;11.32;;;;;;;17.05;66.70;101115.47;4989794;28;20046;-45
2023/09/04 02:45:34;;;;;;;28.33;11.88;;;;;;;17.03;66.22;101106.78;4988106;28;20050;-47
2023/09/04 02:48:00;;;;;;;30.08;12.80;;;;;;;17.02;66.20;101107.69;4993178;28;20168;-43
2023/09/04 02:50:27;;;;;;;30.02;12.50;;;;;;;17.00;66.85;101094.63;4986255;28;20042;-47
2023/09/04 02:52:54;;;;;;;31.15;13.32;;;;;;;17.00;66.76;101096.34;4982860;28;20057;-45
2023/09/04 02:55:21;;;;;;;27.65;11.05;;;;;;;16.96;66.45;101095.53;4992030;28;20180;-45
2023/09/04 02:57:47;;;;;;;26.45;12.18;;;;;;;16.93;66.17;101095.56;4981366;28;20053;-43
2023/09/04 03:00:14;;;;;;;28.30;12.65;;;;;;;16.89;66.18;101094.72;4988251;28;20042;-47
2023/09/04 03:02:41;;;;;;;30.27;12.70;;;;;;;16.87;66.52;101101.75;4992626;28;20550;-45
2023/09/04 03:05:08;;;;;;;28.48;12.00;;;;;;;16.85;66.81;101102.66;4981457;28;20043;-47
2023/09/04 03:07:35;;;;;;;28.77;12.85;;;;;;;16.82;66.63;101099.19;4977957;28;20160;-47
2023/09/04 03:10:02;;;;;;;28.92;11.30;;;;;;;16.78;66.89;101094.88;4990380;28;20604;-43
2023/09/04 03:12:30;;;;;;;28.70;13.30;;;;;;;16.76;66.27;101088.81;4985221;28;20050;-42
2023/09/04 03:14:58;;;;;;;33.20;12.75;;;;;;;16.75;67.05;101091.44;4981277;28;20061;-46
2023/09/04 03:17:28;;;;;;;29.67;11.73;;;;;;;16.73;66.64;101095.81;4974875;28;20046;-42
2023/09/04 03:19:57;;;;;;;27.13;10.93;;;;;;;16.70;66.15;101089.75;4982436;28;20053;-43
2023/09/04 03:22:25;;;;;;;31.42;13.23;;;;;;;16.70;66.39;101094.97;4975385;28;20061;-44
2023/09/04 03:24:52;;;;;;;29.48;13.13;;;;;;;16.69;66.93;101093.22;4987484;28;20064;-46
2023/09/04 03:27:19;;;;;;;31.23;13.07;;;;;;;16.66;66.32;101103.75;4985950;28;20062;-44
2023/09/04 03:29:45;;;;;;;27.02;12.20;;;;;;;16.65;66.02;101102.00;4990078;28;20415;-46
2023/09/04 03:32:12;;;;;;;29.58;12.38;;;;;;;16.63;66.51;101098.53;4997357;28;20137;-44
2023/09/04 03:34:39;;;;;;;28.02;12.27;;;;;;;16.62;66.52;101102.00;4994905;28;20050;-47
2023/09/04 03:37:06;;;;;;;30.75;12.43;;;;;;;16.59;67.01;101096.84;4977887;28;20066;-41
2023/09/04 03:39:37;;;;;;;28.17;13.05;;;;;;;16.58;66.78;101097.72;4986786;28;20046;-45
2023/09/04 03:42:05;;;;;;;28.95;12.10;;;;;;;16.57;66.64;101098.59;4981276;28;20504;-46
2023/09/04 03:44:32;;;;;;;29.13;11.73;;;;;;;16.57;66.38;101095.97;4982318;28;20062;-47
2023/09/04 03:46:58;;;;;;;34.33;13.10;;;;;;;16.56;66.67;101096.88;4984611;28;20050;-44
2023/09/04 03:49:25;;;;;;;28.75;13.07;;;;;;;16.54;66.70;101094.28;4987805;28;20120;-43
2023/09/04 03:51:52;;;;;;;32.05;13.15;;;;;;;16.54;66.13;101077.69;4984650;28;20749;-44
2023/09/04 03:54:19;;;;;;;29.35;12.85;;;;;;;16.51;66.80;101077.75;4980325;28;20050;-49
2023/09/04 03:56:46;;;;;;;25.42;12.02;;;;;;;16.51;66.98;101083.00;4990041;28;20046;-45
2023/09/04 03:59:12;;;;;;;40.90;11.82;;;;;;;16.51;67.33;101077.75;4984489;28;20062;-46
2023/09/04 04:01:39;;;;;;;42.83;11.43;;;;;;;16.50;67.11;101086.47;4982717;28;20083;-46
2023/09/04 04:04:11;;;;;;;43.92;11.85;;;;;;;16.47;66.50;101082.13;4981423;28;20047;-45
2023/09/04 04:06:38;;;;;;;29.70;11.10;;;;;;;16.45;67.50;101079.53;4976720;28;20076;-45
2023/09/04 04:09:06;;;;;;;30.98;12.50;;;;;;;16.43;67.29;101076.09;4985887;28;20755;-50
2023/09/04 04:11:35;;;;;;;54.45;11.55;;;;;;;16.42;67.33;101079.56;4980611;28;20058;-45
2023/09/04 04:14:02;;;;;;;37.45;11.10;;;;;;;16.39;67.26;101079.63;4985634;28;20046;-46
2023/09/04 04:16:34;;;;;;;46.17;9.98;;;;;;;16.39;67.20;101081.38;4987698;28;20057;-44
2023/09/04 04:19:01;;;;;;;37.45;11.00;;;;;;;16.35;67.80;101080.50;4984326;28;20038;-44
2023/09/04 04:21:28;;;;;;;25.65;11.15;;;;;;;16.34;67.52;101077.94;4981509;28;20049;-46
2023/09/04 04:23:54;;;;;;;30.08;10.48;;;;;;;16.32;67.49;101072.72;4982836;28;20057;-47
2023/09/04 04:26:21;;;;;;;23.45;9.75;;;;;;;16.32;67.62;101062.25;4985777;28;20039;-46
2023/09/04 04:28:48;;;;;;;22.50;10.52;;;;;;;16.29;67.95;101062.28;4995564;28;20680;-44
2023/09/04 04:31:14;;;;;;;22.38;10.05;;;;;;;16.28;67.37;101068.41;4983597;28;20451;-50
2023/09/04 04:33:41;;;;;;;19.92;9.05;;;;;;;16.26;67.44;101064.94;4986990;28;21017;-43
2023/09/04 04:36:08;;;;;;;51.58;11.38;;;;;;;16.24;67.41;101064.09;4982387;28;20492;-45
2023/09/04 04:38:34;;;;;;;28.30;10.25;;;;;;;16.22;67.49;101065.84;4976760;28;20746;-46
2023/09/04 04:41:01;;;;;;;39.30;10.38;;;;;;;16.18;68.27;101065.88;4981550;28;20051;-44
2023/09/04 04:43:28;;;;;;;43.58;10.30;;;;;;;16.17;67.34;101069.38;4983793;28;20057;-44
2023/09/04 04:45:55;;;;;;;35.33;9.95;;;;;;;16.15;67.96;101060.66;4980192;28;20042;-45
2023/09/04 04:48:22;;;;;;;42.05;9.85;;;;;;;16.11;67.53;101064.19;4980515;28;20058;-46
2023/09/04 04:50:49;;;;;;;23.23;10.07;;;;;;;16.11;67.93;101068.56;4982391;28;20046;-48
2023/09/04 04:53:18;;;;;;;48.60;11.88;;;;;;;16.08;68.15;101066.84;4980280;28;20133;-46
2023/09/04 04:55:45;;;;;;;48.45;11.52;;;;;;;16.05;68.12;101061.66;4982692;28;20061;-43
2023/09/04 04:58:11;;;;;;;51.58;11.63;;;;;;;16.03;68.50;101063.41;4984079;28;20702;-46
2023/09/04 05:00:39;;;;;;;26.85;11.18;;;;;;;16.02;68.37;101059.06;4981869;28;20057;-43
2023/09/04 05:03:05;;;;;;;39.90;11.65;;;;;;;16.01;68.36;101057.34;4982010;28;20049;-47
2023/09/04 05:05:32;;;;;;;34.20;11.88;;;;;;;15.99;68.51;101046.03;4982427;28;20096;-45
2023/09/04 05:07:59;;;;;;;35.20;11.68;;;;;;;15.98;68.64;101052.13;4983665;28;20053;-44
2023/09/04 05:10:25;;;;;;;28.70;11.73;;;;;;;15.98;68.76;101052.13;4981617;28;20057;-47
2023/09/04 05:12:52;;;;;;;31.75;12.25;;;;;;;15.98;68.96;101052.13;4981440;28;20761;-43
2023/09/04 05:15:18;;;;;;;59.33;11.77;;;;;;;15.98;68.09;101057.38;4979406;28;20070;-43
2023/09/04 05:17:45;;;;;;;39.92;11.73;;;;;;;15.97;68.60;101063.47;4985194;28;20051;-47
2023/09/04 05:20:12;;;;;;;33.03;11.32;;;;;;;15.97;68.74;101060.88;4978667;28;22087;-47
2023/09/04 05:22:39;;;;;;;31.08;10.88;;;;;;;15.96;69.09;101062.59;4976089;28;20065;-42
2023/09/04 05:25:06;;;;;;;56.90;12.70;;;;;;;15.96;68.69;101070.44;4997248;28;20049;-45
2023/09/04 05:27:32;;;;;;;30.33;12.77;;;;;;;15.95;68.67;101066.09;4997506;28;20175;-44
2023/09/04 05:29:59;;;;;;;31.73;11.50;;;;;;;15.96;68.93;101064.34;4994765;28;20070;-47
2023/09/04 05:32:26;;;;;;;36.08;12.65;;;;;;;15.97;69.03;101071.31;5009274;28;20048;-49
2023/09/04 05:34:53;;;;;;;33.50;12.27;;;;;;;15.98;69.10;101073.03;5013124;28;20122;-46
2023/09/04 05:37:21;;;;;;;33.92;12.77;;;;;;;15.99;69.20;101072.16;5013943;28;20046;-45
2023/09/04 05:39:47;;;;;;;64.43;13.27;;;;;;;15.99;69.32;101080.00;5017447;28;20103;-43
2023/09/04 05:42:14;;;;;;;123.10;15.05;;;;;;;16.01;69.30;101073.03;5009210;28;20053;-45
2023/09/04 05:44:41;;;;;;;61.85;13.00;;;;;;;16.02;69.02;101069.53;5016520;28;20118;-46
2023/09/04 05:47:08;;;;;;;57.00;12.50;;;;;;;16.03;69.51;101081.69;5004372;28;20050;-44
2023/09/04 05:49:34;;;;;;;41.10;11.00;;;;;;;16.05;68.98;101085.19;5012650;28;20427;-45
2023/09/04 05:52:01;;;;;;;43.40;11.15;;;;;;;16.06;69.04;101082.56;5006638;28;20050;-42
2023/09/04 05:54:28;;;;;;;49.95;11.82;;;;;;;16.09;69.38;101080.78;5010094;28;20068;-48
2023/09/04 05:56:54;;;;;;;51.05;11.52;;;;;;;16.09;68.99;101081.66;5006367;28;20045;-46
2023/09/04 05:59:21;;;;;;;55.70;11.60;;;;;;;16.11;69.22;101082.50;5008727;28;20046;-44
2023/09/04 06:01:48;;;;;;;42.30;10.73;;;;;;;16.12;69.29;101081.63;5000285;28;20042;-45
2023/09/04 06:04:14;;;;;;;66.45;12.70;;;;;;;16.14;69.44;101077.25;5001388;28;20057;-47
2023/09/04 06:06:41;;;;;;;88.70;11.73;;;;;;;16.18;69.70;101076.31;5005546;28;20053;-46
2023/09/04 06:09:08;;;;;;;49.30;10.57;;;;;;;16.23;69.50;101072.78;4997031;28;20042;-45
2023/09/04 06:11:34;;;;;;;63.70;10.32;;;;;;;16.24;69.44;101064.09;4996979;28;20054;-44
2023/09/04 06:14:01;;;;;;;61.60;10.32;;;;;;;16.25;69.01;101065.81;4996839;28;20614;-44
2023/09/04 06:16:28;;;;;;;57.28;9.63;;;;;;;16.28;69.28;101068.41;4994684;28;20057;-43
2023/09/04 06:18:54;;;;;;;36.05;8.90;;;;;;;16.26;68.81;101067.53;4998161;28;20046;-47
2023/09/04 06:21:21;;;;;;;49.70;7.93;;;;;;;16.24;68.06;101071.94;5001716;28;20572;-47
2023/09/04 06:23:48;;;;;;;66.55;9.95;;;;;;;16.21;68.87;101075.41;5006120;28;20049;-44
2023/09/04 06:26:14;;;;;;;33.45;9.30;;;;;;;16.22;68.78;101069.34;5001152;28;20591;-43
2023/09/04 06:28:41;;;;;;;19.52;7.93;;;;;;;16.30;68.77;101069.25;4995138;28;20061;-42
2023/09/04 06:31:08;;;;;;;26.67;8.43;;;;;;;16.35;68.14;101077.91;5006517;28;20088;-43
2023/09/04 06:33:37;;;;;;;32.10;9.00;;;;;;;16.41;68.43;101067.38;5002600;28;20060;-44
2023/09/04 06:36:05;;;;;;;38.47;9.55;;;;;;;16.50;68.91;101065.53;5001687;28;20399;-46
2023/09/04 06:38:32;;;;;;;16.58;8.10;;;;;;;16.60;68.50;101072.41;4999210;28;20045;-46
2023/09/04 06:40:58;;;;;;;15.93;8.32;;;;;;;16.68;68.60;101065.34;5004596;28;20042;-45
2023/09/04 06:43:27;;;;;;;17.02;9.48;;;;;;;16.77;68.48;101066.09;5001440;28;20054;-48
2023/09/04 06:45:54;;;;;;;15.80;8.20;;;;;;;16.83;68.14;101064.28;4998245;28;20061;-44
2023/09/04 06:48:21;;;;;;;18.02;8.57;;;;;;;16.93;68.20;101059.78;5002558;28;20056;-43
2023/09/04 06:50:50;;;;;;;21.48;10.05;;;;;;;17.06;67.91;101059.69;5001993;28;20416;-45
2023/09/04 06:53:17;;;;;;;29.60;13.38;;;;;;;17.17;67.71;101063.03;5002753;28;20499;-42
2023/09/04 06:55:44;;;;;;;28.95;13.25;;;;;;;17.27;68.25;101062.88;5002110;28;20053;-43
2023/09/04 06:58:16;;;;;;;31.15;13.35;;;;;;;17.36;67.82;101065.34;5000885;28;20054;-42
2023/09/04 07:00:42;;;;;;;31.20;13.15;;;;;;;17.45;68.09;101067.84;5000385;28;20510;-45
2023/09/04 07:03:09;;;;;;;32.13;12.80;;;;;;;17.66;68.88;101071.00;4996693;28;20054;-48
2023/09/04 07:05:36;;;;;;;28.77;12.82;;;;;;;18.20;67.86;101071.88;4996939;28;20056;-42
2023/09/04 07:08:04;;;;;;;27.17;11.88;;;;;;;18.91;67.65;101074.00;5000813;28;20515;-48
2023/09/04 07:10:31;;;;;;;26.45;11.95;;;;;;;19.68;66.80;101078.44;5000498;28;20100;-47
2023/09/04 07:13:00;;;;;;;21.55;10.88;;;;;;;20.42;66.07;101078.31;4996951;28;20038;-46
2023/09/04 07:15:28;;;;;;;22.00;10.15;;;;;;;21.07;64.43;101069.47;5000029;28;20589;-44
2023/09/04 07:17:57;;;;;;;21.02;10.32;;;;;;;21.68;63.98;101068.44;4996227;28;20050;-46
2023/09/04 07:20:24;;;;;;;21.38;11.15;;;;;;;22.28;62.68;101077.88;4997130;28;20153;-48
2023/09/04 07:22:51;;;;;;;23.10;11.13;;;;;;;22.79;60.91;101075.16;5001148;28;20064;-42
2023/09/04 07:25:32;;;;;;;25.75;13.90;;;;;;;23.33;59.89;101077.50;5000500;28;20062;-45
2023/09/04 07:27:59;;;;;;;23.15;14.25;;;;;;;23.81;59.70;101077.34;5007067;28;20064;-46
2023/09/04 07:30:26;;;;;;;24.23;12.55;;;;;;;24.28;58.47;101067.44;5012586;28;20057;-43
2023/09/04 07:32:52;;;;;;;26.17;13.57;;;;;;;24.72;57.01;101076.13;5008045;28;20061;-49
2023/09/04 07:35:19;;;;;;;23.60;13.10;;;;;;;25.10;56.14;101081.44;5005155;28;20050;-46
2023/09/04 07:37:46;;;;;;;24.15;11.73;;;;;;;25.43;55.69;101071.88;5002527;28;20054;-46
2023/09/04 07:40:13;;;;;;;25.83;11.05;;;;;;;25.77;54.90;101074.72;5002358;28;20082;-46
2023/09/04 07:42:41;;;;;;;19.00;11.00;;;;;;;26.02;54.06;101084.06;5009380;28;20053;-44
2023/09/04 07:45:08;;;;;;;20.77;10.25;;;;;;;26.36;53.64;101082.31;5009092;28;20041;-44
2023/09/04 07:47:35;;;;;;;21.48;10.13;;;;;;;26.68;52.95;101077.06;5001257;28;20391;-46
2023/09/04 07:50:04;;;;;;;25.40;12.57;;;;;;;26.93;52.26;101075.72;5000151;28;20051;-47
2023/09/04 07:52:30;;;;;;;22.25;10.68;;;;;;;27.23;52.08;101070.56;5012110;28;20136;-45
2023/09/04 07:54:57;;;;;;;22.55;11.77;;;;;;;27.54;51.15;101074.13;5008937;28;20041;-48
2023/09/04 07:57:24;;;;;;;23.27;12.52;;;;;;;27.80;50.45;101074.41;5011668;28;21330;-49
2023/09/04 07:59:50;;;;;;;19.35;10.15;;;;;;;28.07;50.58;101065.72;5000067;28;20042;-48
2023/09/04 08:02:17;;;;;;;22.02;11.48;;;;;;;28.34;50.20;101062.34;4999837;28;20140;-43
2023/09/04 08:04:44;;;;;;;24.05;12.02;;;;;;;28.57;49.65;101065.38;5004133;28;20106;-47
2023/09/04 08:07:11;;;;;;;23.58;11.75;;;;;;;28.79;49.37;101050.66;5005875;28;20046;-46
2023/09/04 08:09:37;;;;;;;22.42;12.05;;;;;;;29.03;48.76;101058.03;5006528;28;20515;-46
2023/09/04 08:12:05;;;;;;;21.95;11.00;;;;;;;29.24;49.11;101056.66;5004281;28;20050;-42
2023/09/04 08:14:35;;;;;;;22.35;11.40;;;;;;;29.57;47.52;101067.00;5009993;28;20519;-44
2023/09/04 08:17:03;;;;;;;23.33;11.70;;;;;;;29.84;46.97;101058.06;5002443;28;20057;-49
2023/09/04 08:19:30;;;;;;;22.45;11.98;;;;;;;30.14;46.99;101059.59;5008772;28;20511;-47
2023/09/04 08:21:57;;;;;;;23.00;12.15;;;;;;;30.37;46.12;101055.31;5004563;28;20116;-49
2023/09/04 08:24:24;;;;;;;21.30;10.88;;;;;;;30.56;45.93;101053.16;4999658;28;20058;-45
2023/09/04 08:26:51;;;;;;;20.13;11.40;;;;;;;30.77;46.06;101056.13;5007340;28;20061;-49
2023/09/04 08:29:17;;;;;;;20.75;11.82;;;;;;;31.11;45.32;101055.44;5006355;28;20060;-43
2023/09/04 08:31:44;;;;;;;20.25;11.93;;;;;;;31.39;45.20;101046.22;4992885;28;20053;-46
2023/09/04 08:34:11;;;;;;;28.17;12.82;;;;;;;31.64;44.75;101046.19;4995305;28;20057;-44
2023/09/04 08:36:38;;;;;;;23.40;12.48;;;;;;;31.78;43.98;101043.25;4998065;28;20053;-48
2023/09/04 08:39:05;;;;;;;24.98;12.18;;;;;;;31.92;43.52;101044.91;5001549;28;20579;-51
2023/09/04 08:41:32;;;;;;;21.70;12.43;;;;;;;32.02;43.95;101041.50;4996567;28;20054;-47
2023/09/04 08:43:59;;;;;;;23.05;12.23;;;;;;;31.96;42.73;101034.81;4996517;28;20061;-46
2023/09/04 08:46:28;;;;;;;21.80;11.77;;;;;;;31.87;42.92;101038.16;5004751;28;20046;-48
2023/09/04 08:49:00;;;;;;;20.90;12.63;;;;;;;31.74;42.41;101028.41;4995162;28;20050;-48
2023/09/04 08:51:28;;;;;;;23.95;12.57;;;;;;;31.77;43.16;101033.53;4995769;28;20103;-47
2023/09/04 08:53:56;;;;;;;19.13;11.27;;;;;;;31.85;43.16;101034.75;4990784;28;20050;-49
2023/09/04 08:56:29;;;;;;;19.95;11.85;;;;;;;32.04;42.77;101035.06;4989713;28;20692;-45
2023/09/04 08:58:56;;;;;;;18.27;11.15;;;;;;;32.17;42.50;101034.94;4993443;28;20050;-46
2023/09/04 09:01:28;;;;;;;19.67;11.63;;;;;;;32.29;41.78;101027.72;4992339;28;20104;-46
2023/09/04 09:03:56;;;;;;;18.25;10.85;;;;;;;32.35;41.66;101022.88;4996706;28;20054;-49
2023/09/04 09:06:24;;;;;;;16.95;10.05;;;;;;;32.38;41.95;101025.31;4991608;28;20487;-48
2023/09/04 09:08:53;;;;;;;19.27;10.07;;;;;;;32.49;41.61;101028.00;4995064;28;20110;-48
2023/09/04 09:11:22;;;;;;;17.95;11.07;;;;;;;32.70;42.44;101032.59;4991681;28;20053;-46
2023/09/04 09:13:49;;;;;;;16.23;8.65;;;;;;;32.81;41.50;101029.88;4995857;28;20064;-48
2023/09/04 09:16:19;;;;;;;13.73;9.23;;;;;;;32.87;41.41;101030.34;4997261;28;20053;-47
2023/09/04 09:18:48;;;;;;;17.00;8.52;;;;;;;32.93;41.51;101029.84;4993934;28;20049;-44
2023/09/04 09:21:33;;;;;;;13.63;8.00;;;;;;;33.17;40.82;101026.97;4993407;28;20058;-50
2023/09/04 09:26:48;;;;;;;15.05;8.75;;;;;;;33.41;40.05;101022.34;5034913;28;20402;-45
2023/09/04 09:29:15;;;;;;;;;;;;;;;33.58;40.37;101024.47;5000901;28;20050;-47
2023/09/04 09:31:45;;;;;;;12.73;8.13;;;;;;;33.49;40.21;101025.22;4999093;28;19933;-49
2023/09/04 09:34:12;;;;;;;14.38;8.93;;;;;;;33.41;40.29;101022.34;5000800;28;20161;-46
2023/09/04 09:36:39;;;;;;;13.10;7.57;;;;;;;33.39;41.06;101016.25;4996772;28;20050;-51
2023/09/04 09:39:06;;;;;;;14.27;9.07;;;;;;;33.22;39.58;101023.88;5003526;28;20056;-51
2023/09/04 09:41:33;;;;;;;12.65;7.50;;;;;;;33.13;40.11;101030.03;5001466;28;20544;-45
2023/09/04 09:44:03;;;;;;;11.95;8.02;;;;;;;33.20;40.81;101020.50;4992335;28;20053;-46
2023/09/04 09:46:30;;;;;;;12.85;7.80;;;;;;;33.19;40.40;101018.78;5001812;28;20049;-44
2023/09/04 09:48:58;;;;;;;12.57;7.72;;;;;;;33.12;40.25;101023.81;4999774;28;20049;-47
2023/09/04 09:51:25;;;;;;;11.05;7.28;;;;;;;33.05;40.58;101018.13;4997122;28;20205;-48
2023/09/04 09:53:53;;;;;;;9.57;6.47;;;;;;;32.99;40.24;101007.03;5002416;28;20734;-46
2023/09/04 09:56:20;;;;;;;11.07;7.25;;;;;;;33.15;40.40;101017.31;5000734;28;20053;-48
2023/09/04 09:58:49;;;;;;;9.27;5.85;;;;;;;33.06;39.74;101009.06;5000493;28;20141;-46
2023/09/04 10:01:17;;;;;;;9.32;5.72;;;;;;;32.95;39.90;101009.09;5001461;28;24215;-51
2023/09/04 10:03:46;;;;;;;8.90;6.60;;;;;;;32.95;40.73;101001.03;5000909;28;20073;-50
2023/09/04 10:06:19;;;;;;;9.80;7.35;;;;;;;32.74;39.76;100993.81;4996793;28;20149;-47
2023/09/04 10:08:50;;;;;;;9.82;6.15;;;;;;;32.53;39.53;100983.03;4996574;28;20050;-46
2023/09/04 10:11:17;;;;;;;8.57;6.50;;;;;;;32.37;40.33;100986.06;4995043;28;20132;-47
2023/09/04 10:16:42;;;;;;;8.05;5.32;;;;;;;32.40;40.71;100985.81;5064499;27;20404;-47
2023/09/04 10:19:11;;;;;;;10.45;5.72;;;;;;;32.45;40.23;100988.97;5060002;28;20062;-47
2023/09/04 10:21:40;;;;;;;;;;;;;;;32.24;39.35;100984.38;5043585;28;20130;-51
2023/09/04 10:24:13;;;;;;;8.15;5.20;;;;;;;32.27;40.30;100989.50;5033949;28;20176;-47
2023/09/04 10:29:26;;;;;;;10.90;6.20;;;;;;;32.25;40.14;100980.72;5021542;27;20399;-47
2023/09/04 10:31:53;;;;;;;7.18;5.35;;;;;;;32.20;40.90;100969.53;4986052;28;20057;-46
2023/09/04 10:34:20;;;;;;;8.10;5.43;;;;;;;32.17;40.07;100961.72;4989839;28;20518;-48
2023/09/04 10:36:48;;;;;;;7.03;4.05;;;;;;;32.28;40.29;100964.41;4989207;28;20065;-48
2023/09/04 10:39:15;;;;;;;5.47;4.43;;;;;;;32.39;40.45;100960.00;4999326;28;20056;-53
2023/09/04 10:42:06;;;;;;;6.97;4.43;;;;;;;32.49;40.59;100963.66;4991896;28;20053;-46
2023/09/04 10:44:51;;;;;;;6.20;4.28;;;;;;;32.59;39.77;100960.22;4992130;28;20058;-50
2023/09/04 10:47:19;;;;;;;6.82;4.10;;;;;;;32.83;39.88;100955.47;5000902;28;20049;-51
2023/09/04 10:49:46;;;;;;;5.50;3.47;;;;;;;32.90;39.66;100955.84;4992716;28;20149;-47
2023/09/04 10:52:13;;;;;;;6.53;3.50;;;;;;;32.86;38.46;100954.41;4996216;28;21367;-48
2023/09/04 10:54:41;;;;;;;5.57;3.72;;;;;;;32.79;38.29;100954.03;4984417;28;20046;-49
2023/09/04 10:57:13;;;;;;;4.95;3.28;;;;;;;32.77;39.34;100950.66;4991634;28;20150;-44
2023/09/04 11:02:34;;;;;;;5.28;4.72;;;;;;;32.63;38.09;100949.13;5110379;27;20400;-45
2023/09/04 11:05:03;;;;;;;5.20;4.13;;;;;;;32.55;38.96;100941.69;5087104;28;20768;-47
2023/09/04 11:07:32;;;;;;;5.82;3.65;;;;;;;32.49;38.55;100934.19;5084826;28;20052;-48
2023/09/04 11:12:45;;;;;;;6.20;3.50;;;;;;;32.55;37.32;100936.34;5039067;28;24828;-47
2023/09/04 11:15:13;;;;;;;;;;;;;;;32.27;38.56;100933.22;5027879;28;20053;-47
2023/09/04 11:17:41;;;;;;;;;;;;;;;32.29;38.38;100925.06;5040812;28;19936;-47
2023/09/04 11:20:09;;;;;;;3.97;3.03;;;;;;;32.56;38.51;100932.66;5024860;28;19967;-44
2023/09/04 11:22:36;;;;;;;8.45;3.05;;;;;;;32.62;38.12;100935.84;5058580;28;20069;-48
2023/09/04 11:25:03;;;;;;;5.15;3.22;;;;;;;32.51;37.18;100929.53;5054018;28;20405;-46
2023/09/04 11:27:29;;;;;;;5.78;3.20;;;;;;;32.51;37.65;100917.94;5041229;28;20049;-46
2023/09/04 11:30:01;;;;;;;4.20;3.80;;;;;;;32.46;36.96;100910.31;5038246;28;20044;-48
2023/09/04 11:32:28;;;;;;;4.63;2.58;;;;;;;32.51;37.48;100913.44;5041165;28;20102;-46